sensor_id;sensor_type;location;lat;lon;timestamp;temperature;humidity
43520;DHT22;46848;51.980;5.918;2023-08-01T00:02:08;18.70;86.40
43520;DHT22;46848;51.980;5.918;2023-08-01T00:04:35;18.70;86.40
43520;DHT22;46848;51.980;5.918;2023-08-01T00:07:00;18.70;86.40
43520;DHT22;46848;51.980;5.918;2023-08-01T00:09:26;18.60;86.40
43520;DHT22;46848;51.980;5.918;2023-08-01T00:11:51;18.60;86.50
43520;DHT22;46848;51.980;5.918;2023-08-01T00:14:17;18.70;86.70
43520;DHT22;46848;51.980;5.918;2023-08-01T00:16:44;18.70;86.80
43520;DHT22;46848;51.980;5.918;2023-08-01T00:19:10;18.70;86.80
43520;DHT22;46848;51.980;5.918;2023-08-01T00:21:36;18.70;87.00
43520;DHT22;46848;51.980;5.918;2023-08-01T00:24:01;18.70;87.00
43520;DHT22;46848;51.980;5.918;2023-08-01T00:26:27;18.70;87.00
43520;DHT22;46848;51.980;5.918;2023-08-01T00:28:53;18.70;87.10
43520;DHT22;46848;51.980;5.918;2023-08-01T00:31:18;18.60;87.00
43520;DHT22;46848;51.980;5.918;2023-08-01T00:33:44;18.70;87.00
43520;DHT22;46848;51.980;5.918;2023-08-01T00:36:09;18.70;86.90
43520;DHT22;46848;51.980;5.918;2023-08-01T00:38:37;18.70;86.70
43520;DHT22;46848;51.980;5.918;2023-08-01T00:41:03;18.60;86.50
43520;DHT22;46848;51.980;5.918;2023-08-01T00:43:28;18.60;86.40
43520;DHT22;46848;51.980;5.918;2023-08-01T00:45:59;18.60;86.30
43520;DHT22;46848;51.980;5.918;2023-08-01T00:48:25;18.70;86.30
43520;DHT22;46848;51.980;5.918;2023-08-01T00:50:51;18.60;86.20
43520;DHT22;46848;51.980;5.918;2023-08-01T00:53:18;18.60;86.20
43520;DHT22;46848;51.980;5.918;2023-08-01T00:55:44;18.60;86.20
43520;DHT22;46848;51.980;5.918;2023-08-01T00:58:10;18.60;86.20
43520;DHT22;46848;51.980;5.918;2023-08-01T01:00:35;18.60;86.20
43520;DHT22;46848;51.980;5.918;2023-08-01T01:03:01;18.60;86.20
43520;DHT22;46848;51.980;5.918;2023-08-01T01:05:31;18.60;86.20
43520;DHT22;46848;51.980;5.918;2023-08-01T01:07:59;18.60;86.20
43520;DHT22;46848;51.980;5.918;2023-08-01T01:10:25;18.60;86.20
43520;DHT22;46848;51.980;5.918;2023-08-01T01:12:50;18.60;86.20
43520;DHT22;46848;51.980;5.918;2023-08-01T01:15:16;18.60;86.00
43520;DHT22;46848;51.980;5.918;2023-08-01T01:17:42;18.60;85.90
43520;DHT22;46848;51.980;5.918;2023-08-01T01:20:07;18.60;86.00
43520;DHT22;46848;51.980;5.918;2023-08-01T01:22:34;18.60;86.00
43520;DHT22;46848;51.980;5.918;2023-08-01T01:25:01;18.60;86.00
43520;DHT22;46848;51.980;5.918;2023-08-01T01:27:27;18.60;86.10
43520;DHT22;46848;51.980;5.918;2023-08-01T01:29:54;18.50;86.10
43520;DHT22;46848;51.980;5.918;2023-08-01T01:32:21;18.60;86.10
43520;DHT22;46848;51.980;5.918;2023-08-01T01:34:48;18.60;86.20
43520;DHT22;46848;51.980;5.918;2023-08-01T01:37:13;18.50;86.10
43520;DHT22;46848;51.980;5.918;2023-08-01T01:39:39;18.50;85.90
43520;DHT22;46848;51.980;5.918;2023-08-01T01:42:05;18.50;85.90
43520;DHT22;46848;51.980;5.918;2023-08-01T01:44:31;18.50;85.80
43520;DHT22;46848;51.980;5.918;2023-08-01T01:46:56;18.50;85.80
43520;DHT22;46848;51.980;5.918;2023-08-01T01:49:22;18.50;85.90
43520;DHT22;46848;51.980;5.918;2023-08-01T01:51:48;18.50;86.00
43520;DHT22;46848;51.980;5.918;2023-08-01T01:54:13;18.50;86.10
43520;DHT22;46848;51.980;5.918;2023-08-01T01:56:39;18.50;86.10
43520;DHT22;46848;51.980;5.918;2023-08-01T01:59:05;18.50;86.10
43520;DHT22;46848;51.980;5.918;2023-08-01T02:01:30;18.40;86.10
43520;DHT22;46848;51.980;5.918;2023-08-01T02:03:56;18.50;86.10
43520;DHT22;46848;51.980;5.918;2023-08-01T02:06:21;18.50;86.10
43520;DHT22;46848;51.980;5.918;2023-08-01T02:08:47;18.40;86.00
43520;DHT22;46848;51.980;5.918;2023-08-01T02:11:13;18.40;85.90
43520;DHT22;46848;51.980;5.918;2023-08-01T02:13:38;18.40;86.00
43520;DHT22;46848;51.980;5.918;2023-08-01T02:16:04;18.50;86.10
43520;DHT22;46848;51.980;5.918;2023-08-01T02:18:29;18.40;86.00
43520;DHT22;46848;51.980;5.918;2023-08-01T02:20:55;18.40;86.00
43520;DHT22;46848;51.980;5.918;2023-08-01T02:23:20;18.30;86.00
43520;DHT22;46848;51.980;5.918;2023-08-01T02:25:46;18.30;86.10
43520;DHT22;46848;51.980;5.918;2023-08-01T02:28:11;18.40;86.10
43520;DHT22;46848;51.980;5.918;2023-08-01T02:30:38;18.30;86.00
43520;DHT22;46848;51.980;5.918;2023-08-01T02:33:03;18.30;86.00
43520;DHT22;46848;51.980;5.918;2023-08-01T02:35:29;18.20;85.90
43520;DHT22;46848;51.980;5.918;2023-08-01T02:37:55;18.30;86.00
43520;DHT22;46848;51.980;5.918;2023-08-01T02:40:21;18.20;86.50
43520;DHT22;46848;51.980;5.918;2023-08-01T02:42:47;18.20;85.90
43520;DHT22;46848;51.980;5.918;2023-08-01T02:45:12;18.20;86.00
43520;DHT22;46848;51.980;5.918;2023-08-01T02:47:38;18.20;85.90
43520;DHT22;46848;51.980;5.918;2023-08-01T02:50:04;18.10;85.90
43520;DHT22;46848;51.980;5.918;2023-08-01T02:52:31;18.10;85.80
43520;DHT22;46848;51.980;5.918;2023-08-01T02:54:57;18.10;86.00
43520;DHT22;46848;51.980;5.918;2023-08-01T02:57:23;18.10;86.10
43520;DHT22;46848;51.980;5.918;2023-08-01T02:59:49;18.10;86.10
43520;DHT22;46848;51.980;5.918;2023-08-01T03:02:14;18.10;86.10
43520;DHT22;46848;51.980;5.918;2023-08-01T03:04:40;18.10;86.20
43520;DHT22;46848;51.980;5.918;2023-08-01T03:07:05;18.10;86.20
43520;DHT22;46848;51.980;5.918;2023-08-01T03:09:32;18.10;86.20
43520;DHT22;46848;51.980;5.918;2023-08-01T03:11:58;18.10;86.30
43520;DHT22;46848;51.980;5.918;2023-08-01T03:14:23;18.10;86.20
43520;DHT22;46848;51.980;5.918;2023-08-01T03:16:49;18.10;86.20
43520;DHT22;46848;51.980;5.918;2023-08-01T03:19:14;18.10;86.10
43520;DHT22;46848;51.980;5.918;2023-08-01T03:21:40;18.00;86.10
43520;DHT22;46848;51.980;5.918;2023-08-01T03:24:06;18.00;86.20
43520;DHT22;46848;51.980;5.918;2023-08-01T03:26:34;18.00;86.20
43520;DHT22;46848;51.980;5.918;2023-08-01T03:29:00;18.00;86.40
43520;DHT22;46848;51.980;5.918;2023-08-01T03:31:25;18.10;86.50
43520;DHT22;46848;51.980;5.918;2023-08-01T03:33:51;18.00;86.40
43520;DHT22;46848;51.980;5.918;2023-08-01T03:36:17;18.00;86.50
43520;DHT22;46848;51.980;5.918;2023-08-01T03:38:43;18.00;86.50
43520;DHT22;46848;51.980;5.918;2023-08-01T03:41:08;18.00;86.50
43520;DHT22;46848;51.980;5.918;2023-08-01T03:43:34;18.00;86.50
43520;DHT22;46848;51.980;5.918;2023-08-01T03:46:00;18.00;86.50
43520;DHT22;46848;51.980;5.918;2023-08-01T03:48:26;18.00;86.50
43520;DHT22;46848;51.980;5.918;2023-08-01T03:50:51;18.00;86.30
43520;DHT22;46848;51.980;5.918;2023-08-01T03:53:17;18.00;86.20
43520;DHT22;46848;51.980;5.918;2023-08-01T03:55:44;18.00;86.20
43520;DHT22;46848;51.980;5.918;2023-08-01T03:58:10;18.00;86.30
43520;DHT22;46848;51.980;5.918;2023-08-01T04:00:35;18.00;86.30
43520;DHT22;46848;51.980;5.918;2023-08-01T04:03:01;18.00;86.50
43520;DHT22;46848;51.980;5.918;2023-08-01T04:05:28;18.00;86.50
43520;DHT22;46848;51.980;5.918;2023-08-01T04:07:54;18.00;86.30
43520;DHT22;46848;51.980;5.918;2023-08-01T04:10:21;18.00;86.10
43520;DHT22;46848;51.980;5.918;2023-08-01T04:12:46;18.00;86.20
43520;DHT22;46848;51.980;5.918;2023-08-01T04:15:12;17.90;86.40
43520;DHT22;46848;51.980;5.918;2023-08-01T04:17:38;17.90;86.40
43520;DHT22;46848;51.980;5.918;2023-08-01T04:20:03;17.90;86.10
43520;DHT22;46848;51.980;5.918;2023-08-01T04:22:29;18.00;86.30
43520;DHT22;46848;51.980;5.918;2023-08-01T04:24:55;17.90;86.10
43520;DHT22;46848;51.980;5.918;2023-08-01T04:27:20;17.90;86.00
43520;DHT22;46848;51.980;5.918;2023-08-01T04:29:47;17.90;86.20
43520;DHT22;46848;51.980;5.918;2023-08-01T04:32:12;17.90;86.30
43520;DHT22;46848;51.980;5.918;2023-08-01T04:34:40;17.90;86.30
43520;DHT22;46848;51.980;5.918;2023-08-01T04:37:06;18.00;86.50
43520;DHT22;46848;51.980;5.918;2023-08-01T04:39:32;17.90;86.40
43520;DHT22;46848;51.980;5.918;2023-08-01T04:41:57;18.00;86.40
43520;DHT22;46848;51.980;5.918;2023-08-01T04:44:23;17.90;86.20
43520;DHT22;46848;51.980;5.918;2023-08-01T04:46:48;18.00;86.10
43520;DHT22;46848;51.980;5.918;2023-08-01T04:49:14;17.90;86.40
43520;DHT22;46848;51.980;5.918;2023-08-01T04:51:40;17.90;86.50
43520;DHT22;46848;51.980;5.918;2023-08-01T04:54:06;17.90;86.50
43520;DHT22;46848;51.980;5.918;2023-08-01T04:56:31;18.00;86.70
43520;DHT22;46848;51.980;5.918;2023-08-01T04:58:57;18.00;86.60
43520;DHT22;46848;51.980;5.918;2023-08-01T05:01:22;18.00;86.30
43520;DHT22;46848;51.980;5.918;2023-08-01T05:03:48;18.00;86.50
43520;DHT22;46848;51.980;5.918;2023-08-01T05:06:13;18.00;86.60
43520;DHT22;46848;51.980;5.918;2023-08-01T05:08:39;18.00;86.60
43520;DHT22;46848;51.980;5.918;2023-08-01T05:11:05;18.00;86.50
43520;DHT22;46848;51.980;5.918;2023-08-01T05:13:30;18.10;86.60
43520;DHT22;46848;51.980;5.918;2023-08-01T05:15:56;18.00;86.10
43520;DHT22;46848;51.980;5.918;2023-08-01T05:18:22;18.10;86.30
43520;DHT22;46848;51.980;5.918;2023-08-01T05:20:47;18.10;86.40
43520;DHT22;46848;51.980;5.918;2023-08-01T05:23:13;18.10;86.10
43520;DHT22;46848;51.980;5.918;2023-08-01T05:25:38;18.10;85.90
43520;DHT22;46848;51.980;5.918;2023-08-01T05:28:04;18.10;85.90
43520;DHT22;46848;51.980;5.918;2023-08-01T05:30:30;18.10;86.00
43520;DHT22;46848;51.980;5.918;2023-08-01T05:32:55;18.10;86.00
43520;DHT22;46848;51.980;5.918;2023-08-01T05:35:21;18.10;86.10
43520;DHT22;46848;51.980;5.918;2023-08-01T05:37:47;18.10;86.20
43520;DHT22;46848;51.980;5.918;2023-08-01T05:40:13;18.10;86.10
43520;DHT22;46848;51.980;5.918;2023-08-01T05:42:38;18.10;86.10
43520;DHT22;46848;51.980;5.918;2023-08-01T05:45:04;18.20;86.20
43520;DHT22;46848;51.980;5.918;2023-08-01T05:47:31;18.20;86.20
43520;DHT22;46848;51.980;5.918;2023-08-01T05:49:56;18.20;86.30
43520;DHT22;46848;51.980;5.918;2023-08-01T05:52:22;18.30;86.20
43520;DHT22;46848;51.980;5.918;2023-08-01T05:54:48;18.30;86.10
43520;DHT22;46848;51.980;5.918;2023-08-01T05:57:13;18.30;86.20
43520;DHT22;46848;51.980;5.918;2023-08-01T05:59:39;18.30;86.10
43520;DHT22;46848;51.980;5.918;2023-08-01T06:02:05;18.30;86.10
43520;DHT22;46848;51.980;5.918;2023-08-01T06:04:31;18.30;86.10
43520;DHT22;46848;51.980;5.918;2023-08-01T06:06:57;18.40;86.20
43520;DHT22;46848;51.980;5.918;2023-08-01T06:09:24;18.40;86.20
43520;DHT22;46848;51.980;5.918;2023-08-01T06:11:50;18.40;86.20
43520;DHT22;46848;51.980;5.918;2023-08-01T06:14:15;18.50;86.30
43520;DHT22;46848;51.980;5.918;2023-08-01T06:16:41;18.50;86.30
43520;DHT22;46848;51.980;5.918;2023-08-01T06:19:07;18.50;86.40
43520;DHT22;46848;51.980;5.918;2023-08-01T06:21:32;18.50;86.20
43520;DHT22;46848;51.980;5.918;2023-08-01T06:23:58;18.50;86.10
43520;DHT22;46848;51.980;5.918;2023-08-01T06:26:24;18.50;86.00
43520;DHT22;46848;51.980;5.918;2023-08-01T06:28:49;18.50;86.00
43520;DHT22;46848;51.980;5.918;2023-08-01T06:31:18;18.50;85.90
43520;DHT22;46848;51.980;5.918;2023-08-01T06:33:44;18.50;86.00
43520;DHT22;46848;51.980;5.918;2023-08-01T06:36:09;18.50;85.90
43520;DHT22;46848;51.980;5.918;2023-08-01T06:38:35;18.60;85.70
43520;DHT22;46848;51.980;5.918;2023-08-01T06:41:00;18.60;85.80
43520;DHT22;46848;51.980;5.918;2023-08-01T06:43:26;18.60;85.80
43520;DHT22;46848;51.980;5.918;2023-08-01T06:45:52;18.60;85.70
43520;DHT22;46848;51.980;5.918;2023-08-01T06:48:17;18.70;85.60
43520;DHT22;46848;51.980;5.918;2023-08-01T06:50:43;18.70;85.50
43520;DHT22;46848;51.980;5.918;2023-08-01T06:53:08;18.70;85.40
43520;DHT22;46848;51.980;5.918;2023-08-01T06:55:34;18.80;85.40
43520;DHT22;46848;51.980;5.918;2023-08-01T06:58:00;18.80;85.80
43520;DHT22;46848;51.980;5.918;2023-08-01T07:00:25;18.90;85.10
43520;DHT22;46848;51.980;5.918;2023-08-01T07:02:51;19.00;85.00
43520;DHT22;46848;51.980;5.918;2023-08-01T07:05:17;19.00;84.80
43520;DHT22;46848;51.980;5.918;2023-08-01T07:07:42;19.00;84.50
43520;DHT22;46848;51.980;5.918;2023-08-01T07:10:08;19.10;84.40
43520;DHT22;46848;51.980;5.918;2023-08-01T07:12:34;19.10;84.30
43520;DHT22;46848;51.980;5.918;2023-08-01T07:14:59;19.10;84.00
43520;DHT22;46848;51.980;5.918;2023-08-01T07:17:25;19.10;83.90
43520;DHT22;46848;51.980;5.918;2023-08-01T07:19:50;19.10;83.70
43520;DHT22;46848;51.980;5.918;2023-08-01T07:22:16;19.10;83.50
43520;DHT22;46848;51.980;5.918;2023-08-01T07:24:41;19.20;83.40
43520;DHT22;46848;51.980;5.918;2023-08-01T07:27:07;19.20;83.30
43520;DHT22;46848;51.980;5.918;2023-08-01T07:29:32;19.30;83.20
43520;DHT22;46848;51.980;5.918;2023-08-01T07:31:58;19.30;83.00
43520;DHT22;46848;51.980;5.918;2023-08-01T07:34:24;19.30;83.10
43520;DHT22;46848;51.980;5.918;2023-08-01T07:36:49;19.50;83.00
43520;DHT22;46848;51.980;5.918;2023-08-01T07:39:16;19.60;82.70
43520;DHT22;46848;51.980;5.918;2023-08-01T07:41:41;19.70;82.00
43520;DHT22;46848;51.980;5.918;2023-08-01T07:44:07;19.90;82.00
43520;DHT22;46848;51.980;5.918;2023-08-01T07:46:32;20.00;81.30
43520;DHT22;46848;51.980;5.918;2023-08-01T07:48:58;20.30;81.20
43520;DHT22;46848;51.980;5.918;2023-08-01T07:51:27;20.40;80.40
43520;DHT22;46848;51.980;5.918;2023-08-01T07:53:54;20.50;79.60
43520;DHT22;46848;51.980;5.918;2023-08-01T07:56:20;20.70;79.50
43520;DHT22;46848;51.980;5.918;2023-08-01T07:58:46;20.80;78.80
43520;DHT22;46848;51.980;5.918;2023-08-01T08:01:11;21.10;78.50
43520;DHT22;46848;51.980;5.918;2023-08-01T08:03:37;21.30;77.60
43520;DHT22;46848;51.980;5.918;2023-08-01T08:06:02;21.40;76.70
43520;DHT22;46848;51.980;5.918;2023-08-01T08:08:29;21.50;76.10
43520;DHT22;46848;51.980;5.918;2023-08-01T08:10:55;21.50;75.90
43520;DHT22;46848;51.980;5.918;2023-08-01T08:13:20;21.50;75.30
43520;DHT22;46848;51.980;5.918;2023-08-01T08:15:46;21.60;75.10
43520;DHT22;46848;51.980;5.918;2023-08-01T08:18:12;21.60;75.10
43520;DHT22;46848;51.980;5.918;2023-08-01T08:20:43;21.50;74.90
43520;DHT22;46848;51.980;5.918;2023-08-01T08:23:10;21.50;74.90
43520;DHT22;46848;51.980;5.918;2023-08-01T08:25:36;21.40;75.00
43520;DHT22;46848;51.980;5.918;2023-08-01T08:28:02;21.20;75.50
43520;DHT22;46848;51.980;5.918;2023-08-01T08:30:27;21.10;76.20
43520;DHT22;46848;51.980;5.918;2023-08-01T08:32:53;20.90;76.60
43520;DHT22;46848;51.980;5.918;2023-08-01T08:35:18;20.80;77.20
43520;DHT22;46848;51.980;5.918;2023-08-01T08:37:44;20.70;77.60
43520;DHT22;46848;51.980;5.918;2023-08-01T08:40:11;20.70;78.20
43520;DHT22;46848;51.980;5.918;2023-08-01T08:42:37;20.90;78.60
43520;DHT22;46848;51.980;5.918;2023-08-01T08:45:04;21.10;78.50
43520;DHT22;46848;51.980;5.918;2023-08-01T08:47:31;21.20;78.10
43520;DHT22;46848;51.980;5.918;2023-08-01T08:49:59;21.40;78.20
43520;DHT22;46848;51.980;5.918;2023-08-01T08:52:25;21.50;78.00
43520;DHT22;46848;51.980;5.918;2023-08-01T08:54:52;21.70;77.60
43520;DHT22;46848;51.980;5.918;2023-08-01T08:57:19;21.80;76.60
43520;DHT22;46848;51.980;5.918;2023-08-01T08:59:46;21.80;76.10
43520;DHT22;46848;51.980;5.918;2023-08-01T09:02:14;21.90;75.40
43520;DHT22;46848;51.980;5.918;2023-08-01T09:04:40;21.90;74.80
43520;DHT22;46848;51.980;5.918;2023-08-01T09:07:10;21.90;74.30
43520;DHT22;46848;51.980;5.918;2023-08-01T09:09:38;22.00;74.40
43520;DHT22;46848;51.980;5.918;2023-08-01T09:12:04;22.20;74.40
43520;DHT22;46848;51.980;5.918;2023-08-01T09:14:30;22.40;74.10
43520;DHT22;46848;51.980;5.918;2023-08-01T09:17:08;22.50;73.40
43520;DHT22;46848;51.980;5.918;2023-08-01T09:19:34;22.50;72.90
43520;DHT22;46848;51.980;5.918;2023-08-01T09:22:00;22.50;72.30
43520;DHT22;46848;51.980;5.918;2023-08-01T09:24:25;22.60;72.50
43520;DHT22;46848;51.980;5.918;2023-08-01T09:26:51;22.60;72.40
43520;DHT22;46848;51.980;5.918;2023-08-01T09:29:17;22.80;72.30
43520;DHT22;46848;51.980;5.918;2023-08-01T09:31:44;22.90;71.30
43520;DHT22;46848;51.980;5.918;2023-08-01T09:34:21;23.10;70.70
43520;DHT22;46848;51.980;5.918;2023-08-01T09:36:47;23.10;69.90
43520;DHT22;46848;51.980;5.918;2023-08-01T09:39:20;23.10;69.60
43520;DHT22;46848;51.980;5.918;2023-08-01T09:41:57;23.10;68.90
43520;DHT22;46848;51.980;5.918;2023-08-01T09:44:23;23.10;68.90
43520;DHT22;46848;51.980;5.918;2023-08-01T09:47:04;23.10;68.40
43520;DHT22;46848;51.980;5.918;2023-08-01T09:49:30;23.10;67.50
43520;DHT22;46848;51.980;5.918;2023-08-01T09:51:56;23.10;67.40
43520;DHT22;46848;51.980;5.918;2023-08-01T09:54:22;23.10;67.20
43520;DHT22;46848;51.980;5.918;2023-08-01T09:56:50;23.20;67.60
43520;DHT22;46848;51.980;5.918;2023-08-01T09:59:24;23.30;67.00
43520;DHT22;46848;51.980;5.918;2023-08-01T10:01:52;23.40;66.90
43520;DHT22;46848;51.980;5.918;2023-08-01T10:04:25;23.50;66.40
43520;DHT22;46848;51.980;5.918;2023-08-01T10:06:59;23.60;66.50
43520;DHT22;46848;51.980;5.918;2023-08-01T10:09:25;23.80;66.20
43520;DHT22;46848;51.980;5.918;2023-08-01T10:11:52;23.90;66.40
43520;DHT22;46848;51.980;5.918;2023-08-01T10:14:19;24.10;65.90
43520;DHT22;46848;51.980;5.918;2023-08-01T10:16:45;24.20;65.30
43520;DHT22;46848;51.980;5.918;2023-08-01T10:19:13;24.40;65.20
43520;DHT22;46848;51.980;5.918;2023-08-01T10:21:38;24.60;64.10
43520;DHT22;46848;51.980;5.918;2023-08-01T10:24:05;24.70;63.30
43520;DHT22;46848;51.980;5.918;2023-08-01T10:26:31;24.80;63.40
43520;DHT22;46848;51.980;5.918;2023-08-01T10:28:57;24.90;63.20
43520;DHT22;46848;51.980;5.918;2023-08-01T10:31:25;25.10;63.00
43520;DHT22;46848;51.980;5.918;2023-08-01T10:33:51;25.20;62.60
43520;DHT22;46848;51.980;5.918;2023-08-01T10:36:22;25.30;62.30
43520;DHT22;46848;51.980;5.918;2023-08-01T10:38:56;25.40;62.00
43520;DHT22;46848;51.980;5.918;2023-08-01T10:43:52;25.40;61.20
43520;DHT22;46848;51.980;5.918;2023-08-01T10:46:18;25.50;61.40
43520;DHT22;46848;51.980;5.918;2023-08-01T10:48:53;25.60;61.30
43520;DHT22;46848;51.980;5.918;2023-08-01T10:51:18;25.70;60.40
43520;DHT22;46848;51.980;5.918;2023-08-01T10:53:45;25.80;60.90
43520;DHT22;46848;51.980;5.918;2023-08-01T10:56:19;25.90;61.00
43520;DHT22;46848;51.980;5.918;2023-08-01T10:58:45;26.00;60.20
43520;DHT22;46848;51.980;5.918;2023-08-01T11:01:11;26.10;60.70
43520;DHT22;46848;51.980;5.918;2023-08-01T11:03:38;26.10;60.10
43520;DHT22;46848;51.980;5.918;2023-08-01T11:06:05;26.00;60.10
43520;DHT22;46848;51.980;5.918;2023-08-01T11:08:38;26.00;60.00
43520;DHT22;46848;51.980;5.918;2023-08-01T11:11:08;26.00;60.50
43520;DHT22;46848;51.980;5.918;2023-08-01T11:13:35;26.00;60.80
43520;DHT22;46848;51.980;5.918;2023-08-01T11:16:05;25.90;61.00
43520;DHT22;46848;51.980;5.918;2023-08-01T11:18:43;25.90;61.00
43520;DHT22;46848;51.980;5.918;2023-08-01T11:24:24;26.00;59.90
43520;DHT22;46848;51.980;5.918;2023-08-01T11:26:50;26.10;59.90
43520;DHT22;46848;51.980;5.918;2023-08-01T11:29:17;26.20;59.00
43520;DHT22;46848;51.980;5.918;2023-08-01T11:31:59;26.20;59.10
43520;DHT22;46848;51.980;5.918;2023-08-01T11:34:25;26.30;58.40
43520;DHT22;46848;51.980;5.918;2023-08-01T11:36:52;26.40;57.90
43520;DHT22;46848;51.980;5.918;2023-08-01T11:39:18;26.40;58.10
43520;DHT22;46848;51.980;5.918;2023-08-01T11:41:45;26.60;58.00
43520;DHT22;46848;51.980;5.918;2023-08-01T11:44:10;26.50;57.00
43520;DHT22;46848;51.980;5.918;2023-08-01T11:46:38;26.60;57.30
43520;DHT22;46848;51.980;5.918;2023-08-01T11:49:06;26.40;56.60
43520;DHT22;46848;51.980;5.918;2023-08-01T11:51:39;26.40;56.80
43520;DHT22;46848;51.980;5.918;2023-08-01T11:54:05;26.40;56.70
43520;DHT22;46848;51.980;5.918;2023-08-01T11:56:33;26.40;57.20
43520;DHT22;46848;51.980;5.918;2023-08-01T11:58:58;26.30;56.30
43520;DHT22;46848;51.980;5.918;2023-08-01T12:01:25;26.20;56.60
43520;DHT22;46848;51.980;5.918;2023-08-01T12:03:51;26.00;56.20
43520;DHT22;46848;51.980;5.918;2023-08-01T12:06:18;25.80;56.70
43520;DHT22;46848;51.980;5.918;2023-08-01T12:08:47;25.60;57.00
43520;DHT22;46848;51.980;5.918;2023-08-01T12:11:27;25.60;57.30
43520;DHT22;46848;51.980;5.918;2023-08-01T12:14:11;25.70;56.10
43520;DHT22;46848;51.980;5.918;2023-08-01T12:16:37;25.70;56.60
43520;DHT22;46848;51.980;5.918;2023-08-01T12:19:03;25.70;57.30
43520;DHT22;46848;51.980;5.918;2023-08-01T12:21:30;25.60;58.30
43520;DHT22;46848;51.980;5.918;2023-08-01T12:23:56;25.50;58.00
43520;DHT22;46848;51.980;5.918;2023-08-01T12:26:22;25.40;58.20
43520;DHT22;46848;51.980;5.918;2023-08-01T12:28:48;25.30;58.40
43520;DHT22;46848;51.980;5.918;2023-08-01T12:31:20;25.10;58.20
43520;DHT22;46848;51.980;5.918;2023-08-01T12:33:46;24.90;58.40
43520;DHT22;46848;51.980;5.918;2023-08-01T12:36:12;24.70;58.90
43520;DHT22;46848;51.980;5.918;2023-08-01T12:38:56;24.60;58.60
43520;DHT22;46848;51.980;5.918;2023-08-01T12:41:21;24.50;59.00
43520;DHT22;46848;51.980;5.918;2023-08-01T12:43:47;24.30;60.00
43520;DHT22;46848;51.980;5.918;2023-08-01T12:46:13;24.30;59.70
43520;DHT22;46848;51.980;5.918;2023-08-01T12:48:38;24.30;60.10
43520;DHT22;46848;51.980;5.918;2023-08-01T12:51:04;24.30;60.10
43520;DHT22;46848;51.980;5.918;2023-08-01T12:53:29;24.40;59.70
43520;DHT22;46848;51.980;5.918;2023-08-01T12:55:55;24.40;60.00
43520;DHT22;46848;51.980;5.918;2023-08-01T12:58:20;24.30;58.00
43520;DHT22;46848;51.980;5.918;2023-08-01T13:00:46;24.30;58.70
43520;DHT22;46848;51.980;5.918;2023-08-01T13:03:12;24.30;58.80
43520;DHT22;46848;51.980;5.918;2023-08-01T13:05:39;24.30;58.70
43520;DHT22;46848;51.980;5.918;2023-08-01T13:08:05;24.20;59.20
43520;DHT22;46848;51.980;5.918;2023-08-01T13:10:32;24.20;59.60
43520;DHT22;46848;51.980;5.918;2023-08-01T13:12:58;24.30;59.80
43520;DHT22;46848;51.980;5.918;2023-08-01T13:15:25;24.30;59.60
43520;DHT22;46848;51.980;5.918;2023-08-01T13:17:51;24.30;59.40
43520;DHT22;46848;51.980;5.918;2023-08-01T13:20:16;24.50;59.40
43520;DHT22;46848;51.980;5.918;2023-08-01T13:22:44;24.60;58.60
43520;DHT22;46848;51.980;5.918;2023-08-01T13:25:10;24.80;58.60
43520;DHT22;46848;51.980;5.918;2023-08-01T13:27:35;24.90;58.40
43520;DHT22;46848;51.980;5.918;2023-08-01T13:30:02;24.90;58.00
43520;DHT22;46848;51.980;5.918;2023-08-01T13:32:31;25.00;57.40
43520;DHT22;46848;51.980;5.918;2023-08-01T13:34:57;25.10;57.00
43520;DHT22;46848;51.980;5.918;2023-08-01T13:37:22;25.20;56.20
43520;DHT22;46848;51.980;5.918;2023-08-01T13:39:48;25.30;56.00
43520;DHT22;46848;51.980;5.918;2023-08-01T13:42:13;25.40;56.40
43520;DHT22;46848;51.980;5.918;2023-08-01T13:44:40;25.40;56.10
43520;DHT22;46848;51.980;5.918;2023-08-01T13:47:06;25.30;56.10
43520;DHT22;46848;51.980;5.918;2023-08-01T13:49:31;25.30;56.50
43520;DHT22;46848;51.980;5.918;2023-08-01T13:51:58;25.20;55.20
43520;DHT22;46848;51.980;5.918;2023-08-01T13:54:23;25.10;55.80
43520;DHT22;46848;51.980;5.918;2023-08-01T13:56:49;25.00;55.70
43520;DHT22;46848;51.980;5.918;2023-08-01T13:59:15;25.00;55.90
43520;DHT22;46848;51.980;5.918;2023-08-01T14:01:40;24.90;56.20
43520;DHT22;46848;51.980;5.918;2023-08-01T14:04:06;24.80;55.90
43520;DHT22;46848;51.980;5.918;2023-08-01T14:06:32;24.70;56.30
43520;DHT22;46848;51.980;5.918;2023-08-01T14:08:57;24.60;56.60
43520;DHT22;46848;51.980;5.918;2023-08-01T14:11:23;24.60;56.90
43520;DHT22;46848;51.980;5.918;2023-08-01T14:13:49;24.50;57.00
43520;DHT22;46848;51.980;5.918;2023-08-01T14:16:15;24.50;57.00
43520;DHT22;46848;51.980;5.918;2023-08-01T14:18:42;24.60;56.30
43520;DHT22;46848;51.980;5.918;2023-08-01T14:21:08;24.70;56.50
43520;DHT22;46848;51.980;5.918;2023-08-01T14:23:33;24.90;56.20
43520;DHT22;46848;51.980;5.918;2023-08-01T14:25:59;24.90;55.60
43520;DHT22;46848;51.980;5.918;2023-08-01T14:28:25;24.80;55.60
43520;DHT22;46848;51.980;5.918;2023-08-01T14:30:50;24.80;55.70
43520;DHT22;46848;51.980;5.918;2023-08-01T14:33:16;24.80;55.80
43520;DHT22;46848;51.980;5.918;2023-08-01T14:35:41;24.80;55.90
43520;DHT22;46848;51.980;5.918;2023-08-01T14:38:08;24.80;55.70
43520;DHT22;46848;51.980;5.918;2023-08-01T14:40:34;24.80;56.00
43520;DHT22;46848;51.980;5.918;2023-08-01T14:43:01;24.90;56.00
43520;DHT22;46848;51.980;5.918;2023-08-01T14:45:27;25.00;55.40
43520;DHT22;46848;51.980;5.918;2023-08-01T14:47:53;25.10;54.60
43520;DHT22;46848;51.980;5.918;2023-08-01T14:50:18;25.20;54.60
43520;DHT22;46848;51.980;5.918;2023-08-01T14:52:44;25.30;53.30
43520;DHT22;46848;51.980;5.918;2023-08-01T14:55:10;25.30;53.40
43520;DHT22;46848;51.980;5.918;2023-08-01T14:57:35;25.20;53.50
43520;DHT22;46848;51.980;5.918;2023-08-01T15:00:02;25.10;53.00
43520;DHT22;46848;51.980;5.918;2023-08-01T15:02:28;25.00;52.90
43520;DHT22;46848;51.980;5.918;2023-08-01T15:04:54;24.80;53.50
43520;DHT22;46848;51.980;5.918;2023-08-01T15:07:24;24.70;54.30
43520;DHT22;46848;51.980;5.918;2023-08-01T15:09:51;24.50;54.90
43520;DHT22;46848;51.980;5.918;2023-08-01T15:12:20;24.50;55.40
43520;DHT22;46848;51.980;5.918;2023-08-01T15:14:50;24.30;55.80
43520;DHT22;46848;51.980;5.918;2023-08-01T15:17:16;24.20;56.20
43520;DHT22;46848;51.980;5.918;2023-08-01T15:19:41;24.10;56.60
43520;DHT22;46848;51.980;5.918;2023-08-01T15:22:07;24.00;56.90
43520;DHT22;46848;51.980;5.918;2023-08-01T15:24:32;24.00;57.10
43520;DHT22;46848;51.980;5.918;2023-08-01T15:26:58;23.90;57.40
43520;DHT22;46848;51.980;5.918;2023-08-01T15:29:24;23.80;57.70
43520;DHT22;46848;51.980;5.918;2023-08-01T15:31:50;23.80;57.80